sensor_id;sensor_type;location;lat;lon;timestamp;P1;durP1;ratioP1;P2;durP2;ratioP2
52956;SDS011;38819;42.692;23.342;2023-02-28T00:01:11;26.13;;;17.00;;
52956;SDS011;38819;42.692;23.342;2023-02-28T00:03:37;27.95;;;15.32;;
52956;SDS011;38819;42.692;23.342;2023-02-28T00:06:04;30.23;;;16.92;;
52956;SDS011;38819;42.692;23.342;2023-02-28T00:08:30;26.13;;;16.30;;
52956;SDS011;38819;42.692;23.342;2023-02-28T00:10:56;22.50;;;15.73;;
52956;SDS011;38819;42.692;23.342;2023-02-28T00:13:21;26.55;;;16.23;;
52956;SDS011;38819;42.692;23.342;2023-02-28T00:15:47;23.70;;;15.43;;
52956;SDS011;38819;42.692;23.342;2023-02-28T00:18:12;19.35;;;14.15;;
52956;SDS011;38819;42.692;23.342;2023-02-28T00:20:38;21.50;;;15.30;;
52956;SDS011;38819;42.692;23.342;2023-02-28T00:23:03;23.70;;;14.63;;
52956;SDS011;38819;42.692;23.342;2023-02-28T00:25:29;26.30;;;14.90;;
52956;SDS011;38819;42.692;23.342;2023-02-28T00:27:54;28.20;;;16.08;;
52956;SDS011;38819;42.692;23.342;2023-02-28T00:30:21;24.60;;;16.80;;
52956;SDS011;38819;42.692;23.342;2023-02-28T00:32:47;26.75;;;16.13;;
52956;SDS011;38819;42.692;23.342;2023-02-28T00:35:14;24.73;;;16.08;;
52956;SDS011;38819;42.692;23.342;2023-02-28T00:37:40;28.20;;;16.35;;
52956;SDS011;38819;42.692;23.342;2023-02-28T00:40:06;25.10;;;16.75;;
52956;SDS011;38819;42.692;23.342;2023-02-28T00:42:35;25.60;;;16.80;;
52956;SDS011;38819;42.692;23.342;2023-02-28T00:45:01;33.45;;;18.52;;
52956;SDS011;38819;42.692;23.342;2023-02-28T00:47:29;33.33;;;17.77;;
52956;SDS011;38819;42.692;23.342;2023-02-28T00:49:55;27.52;;;19.40;;
52956;SDS011;38819;42.692;23.342;2023-02-28T00:52:20;30.95;;;19.98;;
52956;SDS011;38819;42.692;23.342;2023-02-28T00:54:46;33.22;;;19.15;;
52956;SDS011;38819;42.692;23.342;2023-02-28T00:57:12;30.10;;;18.60;;
52956;SDS011;38819;42.692;23.342;2023-02-28T00:59:37;29.13;;;18.58;;
52956;SDS011;38819;42.692;23.342;2023-02-28T01:02:02;29.80;;;19.52;;
52956;SDS011;38819;42.692;23.342;2023-02-28T01:04:28;32.40;;;18.23;;
52956;SDS011;38819;42.692;23.342;2023-02-28T01:06:53;31.38;;;18.63;;
52956;SDS011;38819;42.692;23.342;2023-02-28T01:09:19;31.25;;;18.55;;
52956;SDS011;38819;42.692;23.342;2023-02-28T01:11:44;30.00;;;19.02;;
52956;SDS011;38819;42.692;23.342;2023-02-28T01:14:14;36.67;;;18.67;;
52956;SDS011;38819;42.692;23.342;2023-02-28T01:16:41;29.83;;;17.92;;
52956;SDS011;38819;42.692;23.342;2023-02-28T01:19:07;27.02;;;17.13;;
52956;SDS011;38819;42.692;23.342;2023-02-28T01:21:33;26.48;;;17.50;;
52956;SDS011;38819;42.692;23.342;2023-02-28T01:24:00;19.67;;;12.80;;
52956;SDS011;38819;42.692;23.342;2023-02-28T01:26:25;28.92;;;17.35;;
52956;SDS011;38819;42.692;23.342;2023-02-28T01:28:51;27.95;;;17.05;;
52956;SDS011;38819;42.692;23.342;2023-02-28T01:31:18;30.65;;;18.30;;
52956;SDS011;38819;42.692;23.342;2023-02-28T01:33:44;29.25;;;17.33;;
52956;SDS011;38819;42.692;23.342;2023-02-28T01:36:14;27.42;;;17.38;;
52956;SDS011;38819;42.692;23.342;2023-02-28T01:38:42;29.75;;;16.77;;
52956;SDS011;38819;42.692;23.342;2023-02-28T01:41:08;26.80;;;17.25;;
52956;SDS011;38819;42.692;23.342;2023-02-28T01:46:09;25.88;;;17.33;;
52956;SDS011;38819;42.692;23.342;2023-02-28T01:48:37;22.98;;;13.27;;
52956;SDS011;38819;42.692;23.342;2023-02-28T01:51:08;34.35;;;19.08;;
52956;SDS011;38819;42.692;23.342;2023-02-28T01:53:40;30.92;;;18.88;;
52956;SDS011;38819;42.692;23.342;2023-02-28T01:56:11;31.90;;;19.10;;
52956;SDS011;38819;42.692;23.342;2023-02-28T01:58:46;32.58;;;19.88;;
52956;SDS011;38819;42.692;23.342;2023-02-28T02:01:12;31.10;;;19.13;;
52956;SDS011;38819;42.692;23.342;2023-02-28T02:03:46;31.10;;;20.02;;
52956;SDS011;38819;42.692;23.342;2023-02-28T02:06:24;34.30;;;19.70;;
52956;SDS011;38819;42.692;23.342;2023-02-28T02:08:54;33.13;;;20.33;;
52956;SDS011;38819;42.692;23.342;2023-02-28T02:11:20;32.55;;;19.63;;
52956;SDS011;38819;42.692;23.342;2023-02-28T02:16:45;37.40;;;20.88;;
52956;SDS011;38819;42.692;23.342;2023-02-28T02:21:50;33.15;;;20.67;;
52956;SDS011;38819;42.692;23.342;2023-02-28T02:40:21;34.58;;;21.45;;
52956;SDS011;38819;42.692;23.342;2023-02-28T02:45:20;41.97;;;23.25;;
52956;SDS011;38819;42.692;23.342;2023-02-28T02:47:50;39.97;;;22.25;;
52956;SDS011;38819;42.692;23.342;2023-02-28T02:50:22;38.08;;;23.88;;
52956;SDS011;38819;42.692;23.342;2023-02-28T02:52:53;39.88;;;21.77;;
52956;SDS011;38819;42.692;23.342;2023-02-28T02:55:24;35.75;;;22.58;;
52956;SDS011;38819;42.692;23.342;2023-02-28T02:57:55;34.35;;;21.95;;
52956;SDS011;38819;42.692;23.342;2023-02-28T03:00:26;40.53;;;21.38;;
52956;SDS011;38819;42.692;23.342;2023-02-28T03:02:57;38.10;;;21.80;;
52956;SDS011;38819;42.692;23.342;2023-02-28T03:05:33;33.97;;;21.20;;
52956;SDS011;38819;42.692;23.342;2023-02-28T03:08:09;39.30;;;21.27;;
52956;SDS011;38819;42.692;23.342;2023-02-28T03:10:36;38.10;;;22.30;;
52956;SDS011;38819;42.692;23.342;2023-02-28T03:24:58;34.08;;;19.92;;
52956;SDS011;38819;42.692;23.342;2023-02-28T03:27:36;28.75;;;17.23;;
52956;SDS011;38819;42.692;23.342;2023-02-28T03:35:21;39.80;;;23.20;;
52956;SDS011;38819;42.692;23.342;2023-02-28T03:37:50;37.92;;;21.70;;
52956;SDS011;38819;42.692;23.342;2023-02-28T03:40:20;38.60;;;22.35;;
52956;SDS011;38819;42.692;23.342;2023-02-28T03:42:48;40.25;;;22.73;;
52956;SDS011;38819;42.692;23.342;2023-02-28T03:45:21;42.30;;;23.40;;
52956;SDS011;38819;42.692;23.342;2023-02-28T03:47:57;37.97;;;23.45;;
52956;SDS011;38819;42.692;23.342;2023-02-28T03:50:34;40.60;;;24.23;;
52956;SDS011;38819;42.692;23.342;2023-02-28T03:53:14;38.75;;;23.33;;
52956;SDS011;38819;42.692;23.342;2023-02-28T03:55:42;44.60;;;24.93;;
52956;SDS011;38819;42.692;23.342;2023-02-28T04:00:43;43.70;;;24.13;;
52956;SDS011;38819;42.692;23.342;2023-02-28T04:03:14;43.63;;;25.05;;
52956;SDS011;38819;42.692;23.342;2023-02-28T04:05:53;43.33;;;24.58;;
52956;SDS011;38819;42.692;23.342;2023-02-28T04:08:23;48.55;;;24.73;;
52956;SDS011;38819;42.692;23.342;2023-02-28T04:10:54;42.10;;;25.67;;
52956;SDS011;38819;42.692;23.342;2023-02-28T04:13:26;43.53;;;25.08;;
52956;SDS011;38819;42.692;23.342;2023-02-28T04:15:52;45.03;;;24.13;;
52956;SDS011;38819;42.692;23.342;2023-02-28T04:18:18;44.30;;;26.10;;
52956;SDS011;38819;42.692;23.342;2023-02-28T04:20:43;41.85;;;24.08;;
52956;SDS011;38819;42.692;23.342;2023-02-28T04:23:09;44.05;;;24.58;;
52956;SDS011;38819;42.692;23.342;2023-02-28T04:25:34;47.45;;;27.08;;
52956;SDS011;38819;42.692;23.342;2023-02-28T04:28:00;44.63;;;22.98;;
52956;SDS011;38819;42.692;23.342;2023-02-28T04:30:25;42.33;;;23.80;;
52956;SDS011;38819;42.692;23.342;2023-02-28T04:32:50;39.35;;;23.00;;
52956;SDS011;38819;42.692;23.342;2023-02-28T04:35:16;40.00;;;22.13;;
52956;SDS011;38819;42.692;23.342;2023-02-28T04:37:41;39.45;;;22.45;;
52956;SDS011;38819;42.692;23.342;2023-02-28T04:40:07;50.33;;;25.63;;
52956;SDS011;38819;42.692;23.342;2023-02-28T04:42:33;55.58;;;26.67;;
52956;SDS011;38819;42.692;23.342;2023-02-28T04:45:03;45.50;;;24.42;;
52956;SDS011;38819;42.692;23.342;2023-02-28T04:47:29;46.25;;;24.73;;
52956;SDS011;38819;42.692;23.342;2023-02-28T04:49:55;41.35;;;24.58;;
52956;SDS011;38819;42.692;23.342;2023-02-28T04:52:20;45.75;;;25.50;;
52956;SDS011;38819;42.692;23.342;2023-02-28T04:54:46;49.22;;;27.38;;
52956;SDS011;38819;42.692;23.342;2023-02-28T04:57:12;49.33;;;27.33;;
52956;SDS011;38819;42.692;23.342;2023-02-28T04:59:37;53.97;;;27.45;;
52956;SDS011;38819;42.692;23.342;2023-02-28T05:02:03;48.38;;;27.10;;
52956;SDS011;38819;42.692;23.342;2023-02-28T05:04:34;44.58;;;25.20;;
52956;SDS011;38819;42.692;23.342;2023-02-28T05:07:01;53.30;;;27.10;;
52956;SDS011;38819;42.692;23.342;2023-02-28T05:09:28;50.88;;;25.52;;
52956;SDS011;38819;42.692;23.342;2023-02-28T05:11:53;51.10;;;26.92;;
52956;SDS011;38819;42.692;23.342;2023-02-28T05:14:19;49.50;;;27.25;;
52956;SDS011;38819;42.692;23.342;2023-02-28T05:16:44;43.63;;;24.60;;
52956;SDS011;38819;42.692;23.342;2023-02-28T05:19:10;50.45;;;25.55;;
52956;SDS011;38819;42.692;23.342;2023-02-28T05:21:36;43.63;;;24.38;;
52956;SDS011;38819;42.692;23.342;2023-02-28T05:24:05;49.20;;;24.30;;
52956;SDS011;38819;42.692;23.342;2023-02-28T05:26:34;47.63;;;25.90;;
52956;SDS011;38819;42.692;23.342;2023-02-28T05:29:02;50.42;;;26.48;;
52956;SDS011;38819;42.692;23.342;2023-02-28T05:31:30;51.67;;;26.95;;
52956;SDS011;38819;42.692;23.342;2023-02-28T05:33:56;56.65;;;27.00;;
52956;SDS011;38819;42.692;23.342;2023-02-28T05:36:21;55.95;;;28.50;;
52956;SDS011;38819;42.692;23.342;2023-02-28T05:38:47;58.53;;;29.08;;
52956;SDS011;38819;42.692;23.342;2023-02-28T05:41:14;54.00;;;28.25;;
52956;SDS011;38819;42.692;23.342;2023-02-28T05:43:40;57.88;;;28.23;;
52956;SDS011;38819;42.692;23.342;2023-02-28T05:46:05;59.67;;;28.85;;
52956;SDS011;38819;42.692;23.342;2023-02-28T05:48:33;52.42;;;29.63;;
52956;SDS011;38819;42.692;23.342;2023-02-28T05:50:59;54.20;;;29.60;;
52956;SDS011;38819;42.692;23.342;2023-02-28T05:53:25;57.50;;;29.75;;
52956;SDS011;38819;42.692;23.342;2023-02-28T05:55:51;51.45;;;28.73;;
52956;SDS011;38819;42.692;23.342;2023-02-28T05:58:16;56.88;;;29.65;;
52956;SDS011;38819;42.692;23.342;2023-02-28T06:00:42;59.70;;;29.48;;
52956;SDS011;38819;42.692;23.342;2023-02-28T06:03:07;52.53;;;28.58;;
52956;SDS011;38819;42.692;23.342;2023-02-28T06:05:33;63.65;;;31.33;;
52956;SDS011;38819;42.692;23.342;2023-02-28T06:07:58;67.05;;;33.20;;
52956;SDS011;38819;42.692;23.342;2023-02-28T06:10:24;71.35;;;33.58;;
52956;SDS011;38819;42.692;23.342;2023-02-28T06:12:49;65.30;;;31.48;;
52956;SDS011;38819;42.692;23.342;2023-02-28T06:15:15;72.18;;;33.05;;
52956;SDS011;38819;42.692;23.342;2023-02-28T06:17:42;61.10;;;31.38;;
52956;SDS011;38819;42.692;23.342;2023-02-28T06:20:08;63.33;;;32.83;;
52956;SDS011;38819;42.692;23.342;2023-02-28T06:22:37;65.05;;;31.85;;
52956;SDS011;38819;42.692;23.342;2023-02-28T06:25:04;56.75;;;29.40;;
52956;SDS011;38819;42.692;23.342;2023-02-28T06:27:31;58.75;;;30.17;;
52956;SDS011;38819;42.692;23.342;2023-02-28T06:29:57;54.30;;;30.25;;
52956;SDS011;38819;42.692;23.342;2023-02-28T06:32:23;61.03;;;29.52;;
52956;SDS011;38819;42.692;23.342;2023-02-28T06:34:48;56.97;;;30.92;;
52956;SDS011;38819;42.692;23.342;2023-02-28T06:37:15;39.13;;;22.33;;
52956;SDS011;38819;42.692;23.342;2023-02-28T06:39:41;51.97;;;28.98;;
52956;SDS011;38819;42.692;23.342;2023-02-28T06:42:07;54.85;;;29.27;;
52956;SDS011;38819;42.692;23.342;2023-02-28T06:44:32;56.05;;;30.13;;
52956;SDS011;38819;42.692;23.342;2023-02-28T06:47:00;49.42;;;29.20;;
52956;SDS011;38819;42.692;23.342;2023-02-28T06:49:28;46.85;;;27.58;;
52956;SDS011;38819;42.692;23.342;2023-02-28T06:51:54;44.45;;;27.40;;
52956;SDS011;38819;42.692;23.342;2023-02-28T06:54:19;48.25;;;28.65;;
52956;SDS011;38819;42.692;23.342;2023-02-28T06:56:45;56.58;;;30.30;;
52956;SDS011;38819;42.692;23.342;2023-02-28T06:59:10;49.58;;;28.85;;
52956;SDS011;38819;42.692;23.342;2023-02-28T07:01:35;51.67;;;30.08;;
52956;SDS011;38819;42.692;23.342;2023-02-28T07:04:01;53.70;;;30.55;;
52956;SDS011;38819;42.692;23.342;2023-02-28T07:06:27;61.17;;;32.90;;
52956;SDS011;38819;42.692;23.342;2023-02-28T07:08:53;60.92;;;31.92;;
52956;SDS011;38819;42.692;23.342;2023-02-28T07:11:19;57.92;;;32.58;;
52956;SDS011;38819;42.692;23.342;2023-02-28T07:13:47;59.45;;;32.03;;
52956;SDS011;38819;42.692;23.342;2023-02-28T07:16:13;62.75;;;32.38;;
52956;SDS011;38819;42.692;23.342;2023-02-28T07:18:39;55.38;;;30.50;;
52956;SDS011;38819;42.692;23.342;2023-02-28T07:21:05;58.67;;;31.55;;
52956;SDS011;38819;42.692;23.342;2023-02-28T07:23:33;56.25;;;31.30;;
52956;SDS011;38819;42.692;23.342;2023-02-28T07:25:58;57.33;;;30.58;;
52956;SDS011;38819;42.692;23.342;2023-02-28T07:28:24;55.28;;;30.85;;
52956;SDS011;38819;42.692;23.342;2023-02-28T07:30:50;57.95;;;30.45;;
52956;SDS011;38819;42.692;23.342;2023-02-28T07:33:15;54.80;;;29.85;;
52956;SDS011;38819;42.692;23.342;2023-02-28T07:35:41;52.17;;;30.00;;
52956;SDS011;38819;42.692;23.342;2023-02-28T07:38:06;55.50;;;29.80;;
52956;SDS011;38819;42.692;23.342;2023-02-28T07:40:32;49.42;;;28.80;;
52956;SDS011;38819;42.692;23.342;2023-02-28T07:42:59;48.47;;;29.33;;
52956;SDS011;38819;42.692;23.342;2023-02-28T07:45:26;52.58;;;28.65;;
52956;SDS011;38819;42.692;23.342;2023-02-28T07:47:54;50.80;;;30.05;;
52956;SDS011;38819;42.692;23.342;2023-02-28T07:50:20;48.50;;;27.35;;
52956;SDS011;38819;42.692;23.342;2023-02-28T07:52:45;44.97;;;27.63;;
52956;SDS011;38819;42.692;23.342;2023-02-28T07:55:11;46.53;;;27.90;;
52956;SDS011;38819;42.692;23.342;2023-02-28T07:57:37;50.33;;;28.10;;
52956;SDS011;38819;42.692;23.342;2023-02-28T08:00:03;45.40;;;27.20;;
52956;SDS011;38819;42.692;23.342;2023-02-28T08:04:55;55.33;;;29.45;;
52956;SDS011;38819;42.692;23.342;2023-02-28T08:07:21;47.45;;;29.13;;
52956;SDS011;38819;42.692;23.342;2023-02-28T08:09:47;47.72;;;27.45;;
52956;SDS011;38819;42.692;23.342;2023-02-28T08:12:12;49.60;;;27.20;;
52956;SDS011;38819;42.692;23.342;2023-02-28T08:14:38;43.28;;;28.05;;
52956;SDS011;38819;42.692;23.342;2023-02-28T08:17:04;44.23;;;26.70;;
52956;SDS011;38819;42.692;23.342;2023-02-28T08:19:30;46.45;;;26.70;;
52956;SDS011;38819;42.692;23.342;2023-02-28T08:21:56;48.30;;;27.23;;
52956;SDS011;38819;42.692;23.342;2023-02-28T08:24:22;45.97;;;28.67;;
52956;SDS011;38819;42.692;23.342;2023-02-28T08:26:47;42.75;;;27.30;;
52956;SDS011;38819;42.692;23.342;2023-02-28T08:29:13;40.42;;;27.63;;
52956;SDS011;38819;42.692;23.342;2023-02-28T08:31:39;46.78;;;28.55;;
52956;SDS011;38819;42.692;23.342;2023-02-28T08:34:08;44.20;;;27.83;;
52956;SDS011;38819;42.692;23.342;2023-02-28T08:36:35;46.25;;;29.48;;
52956;SDS011;38819;42.692;23.342;2023-02-28T08:39:01;46.47;;;28.17;;
52956;SDS011;38819;42.692;23.342;2023-02-28T08:41:26;46.45;;;29.00;;
52956;SDS011;38819;42.692;23.342;2023-02-28T08:43:52;54.80;;;29.65;;
52956;SDS011;38819;42.692;23.342;2023-02-28T08:46:18;48.10;;;28.60;;
52956;SDS011;38819;42.692;23.342;2023-02-28T08:48:44;48.42;;;29.42;;
52956;SDS011;38819;42.692;23.342;2023-02-28T08:51:11;46.45;;;30.33;;
52956;SDS011;38819;42.692;23.342;2023-02-28T08:53:43;48.55;;;28.45;;
52956;SDS011;38819;42.692;23.342;2023-02-28T08:56:12;55.28;;;28.55;;
52956;SDS011;38819;42.692;23.342;2023-02-28T08:58:38;44.22;;;24.50;;
52956;SDS011;38819;42.692;23.342;2023-02-28T09:01:15;45.58;;;24.77;;
52956;SDS011;38819;42.692;23.342;2023-02-28T09:03:48;46.58;;;23.67;;
52956;SDS011;38819;42.692;23.342;2023-02-28T09:08:41;43.58;;;20.40;;
52956;SDS011;38819;42.692;23.342;2023-02-28T09:11:07;54.47;;;22.85;;
52956;SDS011;38819;42.692;23.342;2023-02-28T09:13:33;40.75;;;20.70;;
52956;SDS011;38819;42.692;23.342;2023-02-28T09:16:00;41.13;;;21.77;;
52956;SDS011;38819;42.692;23.342;2023-02-28T09:18:27;41.90;;;21.08;;
52956;SDS011;38819;42.692;23.342;2023-02-28T09:20:52;39.08;;;18.80;;
52956;SDS011;38819;42.692;23.342;2023-02-28T09:23:18;43.95;;;20.33;;
52956;SDS011;38819;42.692;23.342;2023-02-28T09:25:50;37.53;;;19.42;;
52956;SDS011;38819;42.692;23.342;2023-02-28T09:28:18;38.90;;;19.83;;
52956;SDS011;38819;42.692;23.342;2023-02-28T09:30:45;37.85;;;19.15;;
52956;SDS011;38819;42.692;23.342;2023-02-28T09:33:13;37.35;;;18.73;;
52956;SDS011;38819;42.692;23.342;2023-02-28T09:35:39;38.72;;;18.13;;
52956;SDS011;38819;42.692;23.342;2023-02-28T09:38:05;42.03;;;20.33;;
52956;SDS011;38819;42.692;23.342;2023-02-28T09:40:34;62.53;;;22.17;;
52956;SDS011;38819;42.692;23.342;2023-02-28T09:43:02;46.80;;;19.73;;
52956;SDS011;38819;42.692;23.342;2023-02-28T09:48:21;36.03;;;17.55;;
52956;SDS011;38819;42.692;23.342;2023-02-28T09:50:49;31.98;;;17.73;;
52956;SDS011;38819;42.692;23.342;2023-02-28T09:53:27;36.50;;;16.92;;
52956;SDS011;38819;42.692;23.342;2023-02-28T09:58:47;44.30;;;18.52;;
52956;SDS011;38819;42.692;23.342;2023-02-28T10:06:20;38.67;;;17.45;;
52956;SDS011;38819;42.692;23.342;2023-02-28T10:08:53;49.85;;;18.15;;
52956;SDS011;38819;42.692;23.342;2023-02-28T10:11:26;37.25;;;16.33;;
52956;SDS011;38819;42.692;23.342;2023-02-28T10:16:37;34.35;;;15.00;;
52956;SDS011;38819;42.692;23.342;2023-02-28T10:21:41;38.15;;;15.85;;
52956;SDS011;38819;42.692;23.342;2023-02-28T10:24:35;29.77;;;15.80;;
52956;SDS011;38819;42.692;23.342;2023-02-28T10:29:37;37.67;;;14.68;;
52956;SDS011;38819;42.692;23.342;2023-02-28T10:32:05;31.35;;;14.55;;
52956;SDS011;38819;42.692;23.342;2023-02-28T10:34:30;29.10;;;14.68;;
52956;SDS011;38819;42.692;23.342;2023-02-28T10:36:56;31.35;;;13.65;;
52956;SDS011;38819;42.692;23.342;2023-02-28T10:39:44;31.85;;;14.13;;
52956;SDS011;38819;42.692;23.342;2023-02-28T10:45:09;28.88;;;12.43;;
52956;SDS011;38819;42.692;23.342;2023-02-28T10:47:35;41.00;;;15.07;;
52956;SDS011;38819;42.692;23.342;2023-02-28T10:53:45;29.33;;;13.55;;
52956;SDS011;38819;42.692;23.342;2023-02-28T10:58:48;39.80;;;14.23;;
52956;SDS011;38819;42.692;23.342;2023-02-28T11:03:55;41.38;;;16.52;;
52956;SDS011;38819;42.692;23.342;2023-02-28T11:09:01;28.85;;;14.00;;
52956;SDS011;38819;42.692;23.342;2023-02-28T11:11:40;33.75;;;14.02;;
52956;SDS011;38819;42.692;23.342;2023-02-28T11:14:17;37.47;;;14.20;;
52956;SDS011;38819;42.692;23.342;2023-02-28T11:16:47;42.67;;;14.63;;
52956;SDS011;38819;42.692;23.342;2023-02-28T11:19:22;26.23;;;12.88;;
52956;SDS011;38819;42.692;23.342;2023-02-28T11:21:53;36.67;;;14.27;;
52956;SDS011;38819;42.692;23.342;2023-02-28T11:24:31;37.50;;;15.35;;
52956;SDS011;38819;42.692;23.342;2023-02-28T11:27:02;27.58;;;14.15;;
52956;SDS011;38819;42.692;23.342;2023-02-28T11:29:29;35.58;;;15.75;;
52956;SDS011;38819;42.692;23.342;2023-02-28T11:37:00;26.20;;;13.02;;
52956;SDS011;38819;42.692;23.342;2023-02-28T11:39:29;39.20;;;14.23;;
52956;SDS011;38819;42.692;23.342;2023-02-28T11:53:19;30.88;;;14.13;;
52956;SDS011;38819;42.692;23.342;2023-02-28T11:56:08;34.03;;;15.35;;
52956;SDS011;38819;42.692;23.342;2023-02-28T12:10:26;32.45;;;14.93;;
52956;SDS011;38819;42.692;23.342;2023-02-28T12:18:47;36.45;;;13.85;;
52956;SDS011;38819;42.692;23.342;2023-02-28T12:26:44;32.45;;;14.30;;
52956;SDS011;38819;42.692;23.342;2023-02-28T12:29:17;37.28;;;15.40;;
52956;SDS011;38819;42.692;23.342;2023-02-28T12:34:32;36.15;;;15.65;;
52956;SDS011;38819;42.692;23.342;2023-02-28T12:37:02;33.35;;;14.55;;
52956;SDS011;38819;42.692;23.342;2023-02-28T12:39:34;41.90;;;15.35;;
52956;SDS011;38819;42.692;23.342;2023-02-28T12:42:07;27.10;;;13.35;;
52956;SDS011;38819;42.692;23.342;2023-02-28T12:47:24;42.38;;;16.83;;
52956;SDS011;38819;42.692;23.342;2023-02-28T12:49:52;23.25;;;12.52;;
52956;SDS011;38819;42.692;23.342;2023-02-28T12:52:25;39.78;;;13.80;;
52956;SDS011;38819;42.692;23.342;2023-02-28T12:57:37;31.95;;;13.93;;
52956;SDS011;38819;42.692;23.342;2023-02-28T13:00:08;34.03;;;11.98;;
52956;SDS011;38819;42.692;23.342;2023-02-28T13:10:42;37.80;;;14.65;;
52956;SDS011;38819;42.692;23.342;2023-02-28T13:13:29;37.05;;;14.40;;
52956;SDS011;38819;42.692;23.342;2023-02-28T13:16:00;31.17;;;13.95;;
52956;SDS011;38819;42.692;23.342;2023-02-28T13:18:32;32.75;;;13.13;;
52956;SDS011;38819;42.692;23.342;2023-02-28T13:20:58;31.05;;;12.75;;
52956;SDS011;38819;42.692;23.342;2023-02-28T13:27:11;31.40;;;13.48;;
52956;SDS011;38819;42.692;23.342;2023-02-28T13:34:31;29.70;;;13.77;;
52956;SDS011;38819;42.692;23.342;2023-02-28T13:45:36;29.10;;;14.20;;
52956;SDS011;38819;42.692;23.342;2023-02-28T14:01:22;27.25;;;11.90;;
52956;SDS011;38819;42.692;23.342;2023-02-28T14:03:56;34.33;;;13.48;;
52956;SDS011;38819;42.692;23.342;2023-02-28T14:06:27;28.17;;;12.38;;
52956;SDS011;38819;42.692;23.342;2023-02-28T14:11:37;21.95;;;11.88;;
52956;SDS011;38819;42.692;23.342;2023-02-28T14:14:05;31.92;;;12.10;;
52956;SDS011;38819;42.692;23.342;2023-02-28T14:24:34;47.28;;;14.50;;
52956;SDS011;38819;42.692;23.342;2023-02-28T14:27:37;35.00;;;13.35;;
52956;SDS011;38819;42.692;23.342;2023-02-28T14:30:37;39.20;;;13.63;;
52956;SDS011;38819;42.692;23.342;2023-02-28T14:38:53;28.80;;;11.65;;
52956;SDS011;38819;42.692;23.342;2023-02-28T14:41:29;31.05;;;12.93;;
52956;SDS011;38819;42.692;23.342;2023-02-28T14:44:00;36.45;;;12.00;;
52956;SDS011;38819;42.692;23.342;2023-02-28T14:46:28;32.97;;;11.80;;
52956;SDS011;38819;42.692;23.342;2023-02-28T14:49:04;35.47;;;11.63;;
52956;SDS011;38819;42.692;23.342;2023-02-28T14:51:32;34.03;;;12.68;;
52956;SDS011;38819;42.692;23.342;2023-02-28T14:53:59;26.02;;;10.65;;
52956;SDS011;38819;42.692;23.342;2023-02-28T14:56:38;32.08;;;11.55;;
52956;SDS011;38819;42.692;23.342;2023-02-28T14:59:05;38.08;;;11.98;;
52956;SDS011;38819;42.692;23.342;2023-02-28T15:01:47;23.95;;;12.18;;
52956;SDS011;38819;42.692;23.342;2023-02-28T15:04:18;24.98;;;11.82;;
52956;SDS011;38819;42.692;23.342;2023-02-28T15:07:08;32.85;;;11.88;;
52956;SDS011;38819;42.692;23.342;2023-02-28T15:09:35;30.50;;;12.27;;
52956;SDS011;38819;42.692;23.342;2023-02-28T15:12:00;23.73;;;12.45;;
52956;SDS011;38819;42.692;23.342;2023-02-28T15:14:28;28.10;;;11.60;;
52956;SDS011;38819;42.692;23.342;2023-02-28T15:16:59;29.02;;;12.02;;
52956;SDS011;38819;42.692;23.342;2023-02-28T15:19:32;31.70;;;11.23;;
52956;SDS011;38819;42.692;23.342;2023-02-28T15:22:02;32.85;;;11.73;;
52956;SDS011;38819;42.692;23.342;2023-02-28T15:27:06;25.10;;;10.95;;
52956;SDS011;38819;42.692;23.342;2023-02-28T15:29:41;20.92;;;10.85;;
52956;SDS011;38819;42.692;23.342;2023-02-28T15:32:21;19.98;;;10.35;;
52956;SDS011;38819;42.692;23.342;2023-02-28T15:37:56;25.85;;;11.25;;
52956;SDS011;38819;42.692;23.342;2023-02-28T15:48:02;23.40;;;12.73;;
52956;SDS011;38819;42.692;23.342;2023-02-28T15:50:28;24.83;;;12.93;;
52956;SDS011;38819;42.692;23.342;2023-02-28T15:52:54;23.23;;;12.60;;
52956;SDS011;38819;42.692;23.342;2023-02-28T15:55:21;22.52;;;13.00;;
52956;SDS011;38819;42.692;23.342;2023-02-28T15:57:52;19.17;;;11.57;;
52956;SDS011;38819;42.692;23.342;2023-02-28T16:00:23;20.35;;;11.65;;
52956;SDS011;38819;42.692;23.342;2023-02-28T16:02:51;28.67;;;11.35;;
52956;SDS011;38819;42.692;23.342;2023-02-28T16:05:27;21.60;;;12.68;;
52956;SDS011;38819;42.692;23.342;2023-02-28T16:07:57;37.05;;;22.08;;
52956;SDS011;38819;42.692;23.342;2023-02-28T16:10:25;37.97;;;23.15;;
52956;SDS011;38819;42.692;23.342;2023-02-28T16:12:53;35.00;;;21.33;;
52956;SDS011;38819;42.692;23.342;2023-02-28T16:17:47;20.13;;;12.35;;
52956;SDS011;38819;42.692;23.342;2023-02-28T16:20:17;26.63;;;11.55;;
52956;SDS011;38819;42.692;23.342;2023-02-28T16:22:44;21.48;;;11.27;;
52956;SDS011;38819;42.692;23.342;2023-02-28T16:25:14;21.35;;;11.32;;
52956;SDS011;38819;42.692;23.342;2023-02-28T16:27:41;18.92;;;10.90;;
52956;SDS011;38819;42.692;23.342;2023-02-28T16:30:14;18.73;;;9.75;;
52956;SDS011;38819;42.692;23.342;2023-02-28T16:32:44;23.75;;;10.60;;
52956;SDS011;38819;42.692;23.342;2023-02-28T16:35:10;20.30;;;10.20;;
52956;SDS011;38819;42.692;23.342;2023-02-28T16:37:36;17.98;;;10.07;;
52956;SDS011;38819;42.692;23.342;2023-02-28T16:40:02;27.38;;;11.60;;
52956;SDS011;38819;42.692;23.342;2023-02-28T16:42:28;21.23;;;9.57;;
52956;SDS011;38819;42.692;23.342;2023-02-28T16:44:55;22.63;;;9.80;;
52956;SDS011;38819;42.692;23.342;2023-02-28T16:47:22;18.45;;;9.85;;
52956;SDS011;38819;42.692;23.342;2023-02-28T16:49:48;12.80;;;8.52;;
52956;SDS011;38819;42.692;23.342;2023-02-28T16:52:14;19.65;;;9.18;;
52956;SDS011;38819;42.692;23.342;2023-02-28T16:54:40;14.13;;;8.45;;
52956;SDS011;38819;42.692;23.342;2023-02-28T16:57:11;18.70;;;8.98;;
52956;SDS011;38819;42.692;23.342;2023-02-28T16:59:45;13.07;;;8.48;;
52956;SDS011;38819;42.692;23.342;2023-02-28T17:02:11;16.25;;;8.77;;
52956;SDS011;38819;42.692;23.342;2023-02-28T17:04:39;17.85;;;9.10;;
52956;SDS011;38819;42.692;23.342;2023-02-28T17:07:04;16.25;;;9.40;;
52956;SDS011;38819;42.692;23.342;2023-02-28T17:09:30;18.58;;;8.65;;
52956;SDS011;38819;42.692;23.342;2023-02-28T17:11:55;13.95;;;7.40;;
52956;SDS011;38819;42.692;23.342;2023-02-28T17:14:21;14.07;;;7.85;;
52956;SDS011;38819;42.692;23.342;2023-02-28T17:16:48;12.00;;;7.93;;
52956;SDS011;38819;42.692;23.342;2023-02-28T17:19:14;14.80;;;8.48;;
52956;SDS011;38819;42.692;23.342;2023-02-28T17:21:41;18.50;;;9.03;;
52956;SDS011;38819;42.692;23.342;2023-02-28T17:24:07;12.83;;;7.90;;
52956;SDS011;38819;42.692;23.342;2023-02-28T17:26:33;16.45;;;7.93;;
52956;SDS011;38819;42.692;23.342;2023-02-28T17:28:59;16.75;;;10.00;;
52956;SDS011;38819;42.692;23.342;2023-02-28T17:31:25;13.32;;;7.88;;
52956;SDS011;38819;42.692;23.342;2023-02-28T17:33:52;11.20;;;6.63;;
52956;SDS011;38819;42.692;23.342;2023-02-28T17:38:50;11.38;;;5.90;;
52956;SDS011;38819;42.692;23.342;2023-02-28T17:41:16;13.27;;;6.60;;